createdAt,value
2023-03-24T00:01:54.188Z,13.28
2023-03-24T00:05:19.385Z,13.27
2023-03-24T00:08:44.616Z,13.25
2023-03-24T00:12:09.833Z,13.22
2023-03-24T00:15:35.007Z,13.19
2023-03-24T00:19:00.190Z,13.18
2023-03-24T00:22:25.403Z,13.19
2023-03-24T00:25:50.623Z,13.17
2023-03-24T00:29:15.893Z,13.16
2023-03-24T00:32:41.096Z,13.14
2023-03-24T00:36:07.009Z,13.14
2023-03-24T00:39:32.137Z,13.14
2023-03-24T00:42:57.322Z,13.14
2023-03-24T00:46:22.563Z,13.15
2023-03-24T00:49:47.734Z,13.15
2023-03-24T00:53:12.921Z,13.16
2023-03-24T00:56:38.157Z,13.16
2023-03-24T01:00:03.307Z,13.18
2023-03-24T01:03:28.524Z,13.2
2023-03-24T01:06:53.699Z,13.22
2023-03-24T01:10:18.904Z,13.21
2023-03-24T01:13:44.100Z,13.22
2023-03-24T01:17:09.280Z,13.22
2023-03-24T01:20:34.503Z,13.2
2023-03-24T01:23:59.672Z,13.2
2023-03-24T01:27:24.879Z,13.21
2023-03-24T01:30:50.073Z,13.2
2023-03-24T01:34:15.297Z,13.2
2023-03-24T01:37:40.529Z,13.19
2023-03-24T01:41:05.719Z,13.17
2023-03-24T01:44:30.937Z,13.17
2023-03-24T01:47:56.142Z,13.14
2023-03-24T01:51:21.410Z,13.12
2023-03-24T01:54:46.690Z,13.12
2023-03-24T01:58:11.813Z,13.12
2023-03-24T02:01:37.029Z,13.13
2023-03-24T02:05:02.205Z,13.11
2023-03-24T02:08:27.411Z,13.07
2023-03-24T02:11:52.639Z,13
2023-03-24T02:15:17.823Z,12.97
2023-03-24T02:18:43.032Z,12.91
2023-03-24T02:22:08.232Z,12.87
2023-03-24T02:25:33.431Z,12.84
2023-03-24T02:28:58.712Z,12.78
2023-03-24T02:32:23.885Z,12.73
2023-03-24T02:35:49.129Z,12.7
2023-03-24T02:39:14.301Z,12.68
2023-03-24T02:42:39.511Z,12.67
2023-03-24T02:46:04.772Z,12.63
2023-03-24T02:49:29.907Z,12.61
2023-03-24T02:52:55.098Z,12.62
2023-03-24T02:56:20.363Z,12.63
2023-03-24T02:59:45.573Z,12.66
2023-03-24T03:03:10.808Z,12.66
2023-03-24T03:06:35.985Z,12.7
2023-03-24T03:10:01.205Z,12.74
2023-03-24T03:13:26.411Z,12.74
2023-03-24T03:16:51.643Z,12.74
2023-03-24T03:20:16.867Z,12.76
2023-03-24T03:23:42.056Z,12.78
2023-03-24T03:27:07.248Z,12.76
2023-03-24T03:30:32.464Z,12.76
2023-03-24T03:33:57.674Z,12.76
2023-03-24T03:37:22.887Z,12.73
2023-03-24T03:40:48.061Z,12.69
2023-03-24T03:44:13.304Z,12.64
2023-03-24T03:47:38.574Z,12.59
2023-03-24T03:51:12.723Z,12.52
2023-03-24T03:54:29.005Z,12.51
2023-03-24T03:57:54.186Z,12.51
2023-03-24T04:01:19.386Z,12.52
2023-03-24T04:04:48.479Z,12.51
2023-03-24T04:08:09.861Z,12.5
2023-03-24T04:11:35.089Z,12.51
2023-03-24T04:15:00.285Z,12.51
2023-03-24T04:18:25.480Z,12.53
2023-03-24T04:21:50.697Z,12.57
2023-03-24T04:25:15.905Z,12.57
2023-03-24T04:28:41.133Z,12.57
2023-03-24T04:32:06.351Z,12.56
2023-03-24T04:35:31.939Z,12.57
2023-03-24T04:38:56.791Z,12.58
2023-03-24T04:42:21.976Z,12.57
2023-03-24T04:45:47.723Z,12.59
2023-03-24T04:49:12.849Z,12.62
2023-03-24T04:52:38.047Z,12.66
2023-03-24T04:56:03.259Z,12.68
2023-03-24T04:59:28.503Z,12.69
2023-03-24T05:02:53.781Z,12.72
2023-03-24T05:06:18.921Z,12.76
2023-03-24T05:09:44.158Z,12.81
2023-03-24T05:13:09.460Z,12.84
2023-03-24T05:16:34.693Z,12.88
2023-03-24T05:19:59.947Z,12.91
2023-03-24T05:23:25.149Z,12.92
2023-03-24T05:26:50.353Z,12.95
2023-03-24T05:30:15.606Z,12.94
2023-03-24T05:33:40.802Z,12.94
2023-03-24T05:37:06.051Z,12.96
2023-03-24T05:40:31.233Z,13
2023-03-24T05:43:56.479Z,13.04
2023-03-24T05:47:21.683Z,13.02
2023-03-24T05:50:46.891Z,13.05
2023-03-24T05:54:12.187Z,13.09
2023-03-24T05:57:37.432Z,13.12
2023-03-24T06:01:04.858Z,13.13
2023-03-24T06:04:30.162Z,13.18
2023-03-24T06:07:55.352Z,13.21
2023-03-24T06:11:20.640Z,13.29
2023-03-24T06:14:45.804Z,13.32
2023-03-24T06:18:11.095Z,13.38
2023-03-24T06:21:36.265Z,13.45
2023-03-24T06:25:01.421Z,13.48
2023-03-24T06:28:26.572Z,13.53
2023-03-24T06:31:51.710Z,13.55
2023-03-24T06:35:16.882Z,13.53
2023-03-24T06:38:42.017Z,13.56
2023-03-24T06:42:07.209Z,13.59
2023-03-24T06:45:32.435Z,13.63
2023-03-24T06:48:57.571Z,13.65
2023-03-24T06:52:22.749Z,13.7
2023-03-24T06:55:47.907Z,13.74
2023-03-24T06:59:13.131Z,13.74
2023-03-24T07:02:38.432Z,13.74
2023-03-24T07:06:03.515Z,13.69
2023-03-24T07:09:28.689Z,13.69
2023-03-24T07:12:53.856Z,13.68
2023-03-24T07:16:19.078Z,13.66
2023-03-24T07:19:44.245Z,13.66
2023-03-24T07:23:09.367Z,13.61
2023-03-24T07:26:34.528Z,13.57
2023-03-24T07:29:59.847Z,13.51
2023-03-24T07:33:24.834Z,13.47
2023-03-24T07:36:49.991Z,13.43
2023-03-24T07:40:15.111Z,13.39
2023-03-24T07:43:40.295Z,13.41
2023-03-24T07:47:05.414Z,13.4
2023-03-24T07:50:30.558Z,13.4
2023-03-24T07:53:55.729Z,13.48
2023-03-24T07:57:20.907Z,13.55
2023-03-24T08:00:46.047Z,13.57
2023-03-24T08:04:11.256Z,13.55
2023-03-24T08:07:36.368Z,13.54
2023-03-24T08:11:01.554Z,13.57
2023-03-24T08:14:26.668Z,13.61
2023-03-24T08:17:51.904Z,13.65
2023-03-24T08:21:16.980Z,13.65
2023-03-24T08:24:42.163Z,13.7
2023-03-24T08:28:07.425Z,13.76
2023-03-24T08:31:32.459Z,13.78
2023-03-24T08:34:57.608Z,13.87
2023-03-24T08:38:22.788Z,13.92
2023-03-24T08:41:47.977Z,13.94
2023-03-24T08:45:13.180Z,13.95
2023-03-24T08:48:38.314Z,14
2023-03-24T08:52:03.501Z,14.07
2023-03-24T08:55:28.702Z,14.21
2023-03-24T08:58:53.875Z,14.35
2023-03-24T09:02:19.083Z,14.45
2023-03-24T09:05:44.889Z,14.58
2023-03-24T09:09:09.437Z,14.62
2023-03-24T09:12:34.676Z,14.6
2023-03-24T09:15:59.899Z,14.52
2023-03-24T09:19:25.287Z,14.45
2023-03-24T09:22:50.260Z,14.42
2023-03-24T09:26:15.368Z,14.4
2023-03-24T09:29:40.524Z,14.39
2023-03-24T09:33:05.756Z,14.43
2023-03-24T09:36:31.199Z,14.49
2023-03-24T09:39:56.117Z,14.51
2023-03-24T09:43:21.311Z,14.5
2023-03-24T09:46:46.575Z,14.45
2023-03-24T09:50:11.719Z,14.44
2023-03-24T09:53:36.883Z,14.47
2023-03-24T09:57:02.026Z,14.59
2023-03-24T10:00:27.184Z,14.69
2023-03-24T10:03:52.376Z,14.77
2023-03-24T10:07:17.480Z,14.9
2023-03-24T10:10:42.674Z,14.96
2023-03-24T10:14:07.843Z,15.05
2023-03-24T10:17:33.033Z,15.15
2023-03-24T10:20:58.174Z,15.2
2023-03-24T10:24:23.368Z,15.16
2023-03-24T10:27:48.573Z,15.12
2023-03-24T10:31:13.782Z,15.11
2023-03-24T10:34:38.930Z,15.07
2023-03-24T10:38:04.097Z,15.06
2023-03-24T10:41:29.357Z,15.01
2023-03-24T10:44:54.657Z,14.87
2023-03-24T10:48:19.902Z,14.72
2023-03-24T10:51:45.142Z,14.6
2023-03-24T10:55:10.354Z,14.51
2023-03-24T10:58:35.589Z,14.48
2023-03-24T11:02:00.956Z,14.43
2023-03-24T11:05:26.042Z,14.37
2023-03-24T11:08:51.254Z,14.32
2023-03-24T11:12:16.452Z,14.31
2023-03-24T11:15:41.793Z,14.32
2023-03-24T11:19:07.054Z,14.31
2023-03-24T11:22:32.275Z,14.32
2023-03-24T11:25:57.553Z,14.29
2023-03-24T11:29:22.770Z,14.3
2023-03-24T11:32:48.042Z,14.3
2023-03-24T11:36:13.331Z,14.36
2023-03-24T11:39:38.524Z,14.44
2023-03-24T11:43:03.745Z,14.57
2023-03-24T11:46:29.021Z,14.65
2023-03-24T11:49:54.247Z,14.71
2023-03-24T11:53:19.501Z,14.72
2023-03-24T11:56:44.774Z,14.73
2023-03-24T12:00:09.939Z,14.7
2023-03-24T12:03:35.184Z,14.75
2023-03-24T12:07:00.411Z,14.78
2023-03-24T12:10:25.677Z,14.76
2023-03-24T12:13:50.880Z,14.7
2023-03-24T12:17:16.117Z,14.67
2023-03-24T12:20:41.342Z,14.65
2023-03-24T12:24:06.573Z,14.64
2023-03-24T12:27:31.843Z,14.59
2023-03-24T12:30:57.160Z,14.58
2023-03-24T12:34:22.312Z,14.57
2023-03-24T12:37:47.517Z,14.57
2023-03-24T12:41:12.741Z,14.54
2023-03-24T12:44:37.970Z,14.5
2023-03-24T12:48:03.301Z,14.36
2023-03-24T12:51:28.507Z,13.86
2023-03-24T12:54:53.855Z,13.49
2023-03-24T12:58:19.112Z,13.25
2023-03-24T13:01:44.525Z,13.1
2023-03-24T13:05:09.800Z,13.03
2023-03-24T13:08:35.006Z,12.96
2023-03-24T13:12:00.284Z,12.92
2023-03-24T13:15:26.880Z,12.98
2023-03-24T13:18:52.158Z,13.02
2023-03-24T13:22:17.367Z,13.03
2023-03-24T13:25:42.712Z,13.09
2023-03-24T13:29:07.972Z,13.15
2023-03-24T13:32:33.224Z,13.13
2023-03-24T13:35:58.435Z,13.12
2023-03-24T13:39:23.623Z,13.1
2023-03-24T13:42:48.922Z,13.09
2023-03-24T13:46:14.247Z,13.04
2023-03-24T13:49:39.503Z,13.11
2023-03-24T13:53:04.780Z,13.12
2023-03-24T13:56:30.012Z,13.12
2023-03-24T13:59:55.246Z,13.15
2023-03-24T14:03:20.635Z,13.17
2023-03-24T14:06:45.837Z,13.11
2023-03-24T14:10:11.125Z,13.09
2023-03-24T14:13:36.320Z,13.15
2023-03-24T14:17:01.584Z,13.25
2023-03-24T14:20:26.818Z,13.32
2023-03-24T14:23:52.036Z,13.37
2023-03-24T14:27:17.293Z,13.38
2023-03-24T14:30:42.512Z,13.41
2023-03-24T14:34:07.777Z,13.41
2023-03-24T14:37:33.048Z,13.49
2023-03-24T14:40:58.272Z,13.52
2023-03-24T14:44:23.586Z,13.54
2023-03-24T14:47:48.800Z,13.5
2023-03-24T14:51:13.994Z,13.46
2023-03-24T14:54:39.209Z,13.44
2023-03-24T14:58:04.437Z,13.37
2023-03-24T15:01:29.772Z,13.33
2023-03-24T15:04:54.973Z,13.27
2023-03-24T15:39:52.702Z,11.06
2023-03-24T15:43:16.598Z,11.98
2023-03-24T15:46:41.882Z,12.16
2023-03-24T15:50:07.124Z,12.3
2023-03-24T15:53:32.328Z,12.41
2023-03-24T15:56:57.586Z,12.49
2023-03-24T16:00:22.786Z,12.52
2023-03-24T16:03:48.101Z,12.55
2023-03-24T16:07:13.268Z,12.61
2023-03-24T16:10:38.499Z,12.7
2023-03-24T16:14:03.773Z,12.74
2023-03-24T16:17:28.990Z,12.81
2023-03-24T16:20:54.228Z,12.82
2023-03-24T16:24:19.464Z,12.78
2023-03-24T16:27:44.706Z,12.75
2023-03-24T16:31:09.981Z,12.75
2023-03-24T16:34:35.196Z,12.75
2023-03-24T16:38:00.412Z,12.72
2023-03-24T16:41:25.629Z,12.71
2023-03-24T16:44:50.841Z,12.68
2023-03-24T16:48:16.112Z,12.67
2023-03-24T16:51:41.325Z,12.67
2023-03-24T16:55:06.607Z,12.66
2023-03-24T16:58:31.915Z,12.66
2023-03-24T17:01:57.146Z,12.67
2023-03-24T17:05:22.576Z,12.68
2023-03-24T17:08:47.697Z,12.6
2023-03-24T17:12:12.961Z,12.55
2023-03-24T17:15:38.192Z,12.49
2023-03-24T17:19:03.319Z,12.49
2023-03-24T17:22:28.578Z,12.57
2023-03-24T17:25:53.742Z,12.59
2023-03-24T17:29:18.973Z,12.6
2023-03-24T17:32:44.214Z,12.61
2023-03-24T17:36:09.386Z,12.6
2023-03-24T17:39:34.682Z,12.56
2023-03-24T17:42:59.799Z,12.55
2023-03-24T17:46:25.013Z,12.5
2023-03-24T17:49:50.163Z,12.46
2023-03-24T17:53:15.318Z,12.46
2023-03-24T17:56:40.608Z,12.46
2023-03-24T18:00:05.790Z,12.44
2023-03-24T18:03:30.981Z,12.39
2023-03-24T18:06:56.216Z,12.36
2023-03-24T18:10:21.420Z,12.34
2023-03-24T18:13:46.667Z,12.31
2023-03-24T18:17:12.093Z,12.24
2023-03-24T18:20:37.170Z,12.21
2023-03-24T18:24:02.327Z,12.17
2023-03-24T18:27:27.529Z,12.13
2023-03-24T18:30:52.803Z,12.07
2023-03-24T18:34:18.001Z,11.98
2023-03-24T18:37:43.231Z,11.91
2023-03-24T18:41:08.487Z,11.87
2023-03-24T18:44:34.360Z,11.83
2023-03-24T18:47:59.788Z,11.79
2023-03-24T18:51:25.051Z,11.76
2023-03-24T18:54:50.275Z,11.71
2023-03-24T18:58:15.470Z,11.73
2023-03-24T19:01:40.712Z,11.76
2023-03-24T19:05:05.936Z,11.76
2023-03-24T19:08:31.135Z,11.78
2023-03-24T19:11:56.375Z,11.82
2023-03-24T19:15:21.577Z,11.86
2023-03-24T19:18:46.777Z,11.86
2023-03-24T19:22:12.016Z,11.88
2023-03-24T19:25:37.285Z,11.92
2023-03-24T19:29:02.497Z,11.96
2023-03-24T19:32:27.788Z,11.99
2023-03-24T19:35:53.422Z,11.95
2023-03-24T19:39:18.328Z,11.9
2023-03-24T19:42:43.521Z,11.89
2023-03-24T19:46:08.825Z,11.88
2023-03-24T19:49:34.035Z,11.88
2023-03-24T19:52:59.292Z,11.87
2023-03-24T19:56:24.499Z,11.87
2023-03-24T19:59:49.715Z,11.92
2023-03-24T20:03:14.987Z,11.97
2023-03-24T20:06:40.134Z,11.96
2023-03-24T20:10:05.345Z,11.95
2023-03-24T20:13:30.593Z,11.94
2023-03-24T20:16:55.827Z,11.94
2023-03-24T20:20:21.090Z,11.89
2023-03-24T20:23:46.303Z,11.89
2023-03-24T20:27:11.574Z,11.89
2023-03-24T20:30:36.784Z,11.9
2023-03-24T20:34:01.998Z,11.93
2023-03-24T20:37:27.266Z,11.95
2023-03-24T20:40:52.476Z,11.94
2023-03-24T20:44:17.696Z,11.9
2023-03-24T20:47:42.952Z,11.86
2023-03-24T20:51:08.152Z,11.79
2023-03-24T20:54:33.392Z,11.76
2023-03-24T20:57:58.594Z,11.71
2023-03-24T21:01:23.973Z,11.65
2023-03-24T21:04:49.080Z,11.62
2023-03-24T21:08:14.325Z,11.6
2023-03-24T21:11:39.585Z,11.57
2023-03-24T21:15:04.794Z,11.52
2023-03-24T21:18:30.084Z,11.5
2023-03-24T21:21:55.366Z,11.48
2023-03-24T21:25:20.570Z,11.43
2023-03-24T21:28:45.859Z,11.39
2023-03-24T21:32:11.078Z,11.36
2023-03-24T21:35:36.309Z,11.34
2023-03-24T21:39:01.507Z,11.34
2023-03-24T21:42:26.707Z,11.33
2023-03-24T21:45:51.929Z,11.32
2023-03-24T21:49:17.121Z,11.3
2023-03-24T21:52:42.343Z,11.29
2023-03-24T21:56:07.560Z,11.28
2023-03-24T21:59:32.805Z,11.28
2023-03-24T22:02:58.123Z,11.27
2023-03-24T22:06:23.310Z,11.28
2023-03-24T22:09:48.560Z,11.28
2023-03-24T22:13:13.800Z,11.25
2023-03-24T22:16:39.107Z,11.21
2023-03-24T22:20:04.318Z,11.19
2023-03-24T22:23:29.531Z,11.16
2023-03-24T22:26:54.781Z,11.16
2023-03-24T22:30:20.067Z,11.17
2023-03-24T22:33:45.294Z,11.16
2023-03-24T22:37:10.472Z,11.15
2023-03-24T22:40:35.710Z,11.13
2023-03-24T22:44:00.970Z,11.12
2023-03-24T22:47:26.282Z,11.13
2023-03-24T22:50:51.424Z,11.17
2023-03-24T22:54:16.651Z,11.22
2023-03-24T22:57:41.872Z,11.24
2023-03-24T23:01:07.140Z,11.27
2023-03-24T23:04:32.386Z,11.31
2023-03-24T23:07:57.565Z,11.36
2023-03-24T23:11:22.774Z,11.38
2023-03-24T23:14:48.040Z,11.41
2023-03-24T23:18:13.278Z,11.43
2023-03-24T23:21:38.736Z,11.46
2023-03-24T23:25:03.940Z,11.48
2023-03-24T23:28:29.168Z,11.46
2023-03-24T23:31:54.467Z,11.44
2023-03-24T23:35:19.697Z,11.42
2023-03-24T23:38:44.944Z,11.42
2023-03-24T23:42:10.159Z,11.42
2023-03-24T23:45:35.445Z,11.42
2023-03-24T23:49:00.618Z,11.44
2023-03-24T23:52:25.848Z,11.44
2023-03-24T23:55:51.383Z,11.49
2023-03-24T23:59:16.290Z,11.52
